createdAt,value
2023-01-19T00:00:51.686Z,100162.38
2023-01-19T00:03:18.560Z,100151.88
2023-01-19T00:05:45.515Z,100156.91
2023-01-19T00:08:15.196Z,100159.50
2023-01-19T00:10:47.380Z,100151.88
2023-01-19T00:13:15.427Z,100149.28
2023-01-19T00:15:42.117Z,100152.81
2023-01-19T00:18:10.890Z,100157.88
2023-01-19T00:20:38.395Z,100147.47
2023-01-19T00:23:05.671Z,100153.78
2023-01-19T00:25:32.287Z,100161.72
2023-01-19T00:28:01.559Z,100165.25
2023-01-19T00:30:28.517Z,100174.75
2023-01-19T00:32:55.065Z,100162.66
2023-01-19T00:35:21.674Z,100165.03
2023-01-19T00:37:48.249Z,100168.03
2023-01-19T00:40:15.055Z,100170.53
2023-01-19T00:42:44.325Z,100168.38
2023-01-19T00:45:18.580Z,100163.03
2023-01-19T00:47:45.301Z,100168.22
2023-01-19T00:50:14.208Z,100159.78
2023-01-19T00:52:41.412Z,100158.44
2023-01-19T00:55:09.376Z,100146.56
2023-01-19T00:57:36.368Z,100155.84
2023-01-19T01:00:07.362Z,100149.69
2023-01-19T01:02:34.307Z,100152.66
2023-01-19T01:05:02.870Z,100149.50
2023-01-19T01:07:30.647Z,100157.66
2023-01-19T01:09:57.510Z,100148.66
2023-01-19T01:12:24.719Z,100143.13
2023-01-19T01:14:51.279Z,100142.84
2023-01-19T01:17:17.836Z,100148.72
2023-01-19T01:19:44.378Z,100153.91
2023-01-19T01:22:11.122Z,100147.75
2023-01-19T01:24:38.249Z,100149.00
2023-01-19T01:27:04.773Z,100156.28
2023-01-19T01:29:31.281Z,100148.94
2023-01-19T01:31:57.884Z,100153.59
2023-01-19T01:34:24.437Z,100154.69
2023-01-19T01:36:51.413Z,100160.69
2023-01-19T01:39:17.928Z,100158.09
2023-01-19T01:41:44.488Z,100154.69
2023-01-19T01:44:53.496Z,100159.88
2023-01-19T01:47:40.919Z,100152.78
2023-01-19T01:50:28.751Z,100160.41
2023-01-19T01:53:21.608Z,100165.44
2023-01-19T01:55:49.722Z,100167.75
2023-01-19T01:58:16.969Z,100160.66
2023-01-19T02:01:02.397Z,100151.88
2023-01-19T02:03:29.431Z,100158.41
2023-01-19T02:06:00.099Z,100168.66
2023-01-19T02:09:04.253Z,100164.00
2023-01-19T02:11:50.690Z,100158.50
2023-01-19T02:14:19.052Z,100169.41
2023-01-19T02:16:46.543Z,100174.31
2023-01-19T02:19:19.557Z,100165.59
2023-01-19T02:21:57.672Z,100177.13
2023-01-19T02:24:25.206Z,100167.13
2023-01-19T02:26:52.305Z,100166.03
2023-01-19T02:29:21.588Z,100167.50
2023-01-19T02:31:48.412Z,100175.97
2023-01-19T02:34:18.262Z,100187.03
2023-01-19T02:36:51.930Z,100179.06
2023-01-19T02:39:22.463Z,100183.16
2023-01-19T02:41:58.740Z,100192.44
2023-01-19T02:44:27.697Z,100190.22
2023-01-19T02:46:54.767Z,100194.00
2023-01-19T02:49:21.463Z,100200.38
2023-01-19T02:51:48.659Z,100195.06
2023-01-19T02:54:33.755Z,100207.88
2023-01-19T02:57:20.124Z,100214.06
2023-01-19T03:00:09.586Z,100216.50
2023-01-19T03:02:59.216Z,100215.22
2023-01-19T03:05:38.814Z,100221.91
2023-01-19T03:08:31.215Z,100221.09
2023-01-19T03:11:03.216Z,100227.09
2023-01-19T03:13:51.570Z,100234.09
2023-01-19T03:16:42.308Z,100239.94
2023-01-19T03:19:33.213Z,100224.34
2023-01-19T03:22:05.474Z,100213.81
2023-01-19T03:24:37.814Z,100227.78
2023-01-19T03:27:10.525Z,100218.22
2023-01-19T03:29:40.952Z,100228.72
2023-01-19T03:32:12.726Z,100239.00
2023-01-19T03:34:42.844Z,100239.00
2023-01-19T03:37:11.729Z,100236.91
2023-01-19T03:39:38.293Z,100232.66
2023-01-19T03:42:14.840Z,100238.03
2023-01-19T03:44:44.263Z,100238.03
2023-01-19T03:47:14.182Z,100238.84
2023-01-19T03:49:44.173Z,100241.59
2023-01-19T03:52:11.398Z,100257.19
2023-01-19T03:54:38.167Z,100259.91
2023-01-19T03:57:04.818Z,100260.19
2023-01-19T03:59:31.347Z,100256.94
2023-01-19T04:01:57.995Z,100250.41
2023-01-19T04:04:25.667Z,100280.78
2023-01-19T04:06:52.599Z,100275.72
2023-01-19T04:09:20.114Z,100273.41
2023-01-19T04:11:46.822Z,100268.66
2023-01-19T04:14:13.900Z,100266.34
2023-01-19T04:16:40.568Z,100270.06
2023-01-19T04:19:07.183Z,100266.28
2023-01-19T04:21:34.128Z,100265.75
2023-01-19T04:24:01.129Z,100261.97
2023-01-19T04:26:28.218Z,100267.44
2023-01-19T04:28:54.935Z,100255.56
2023-01-19T04:31:22.710Z,100263.63
2023-01-19T04:33:49.641Z,100263.25
2023-01-19T04:36:16.382Z,100263.53
2023-01-19T04:38:42.909Z,100278.59
2023-01-19T04:41:10.716Z,100276.97
2023-01-19T04:43:37.983Z,100285.84
2023-01-19T04:46:04.961Z,100283.53
2023-01-19T04:48:31.817Z,100281.91
2023-01-19T04:50:58.473Z,100287.25
2023-01-19T04:53:25.028Z,100290.78
2023-01-19T04:55:55.392Z,100287.53
2023-01-19T04:58:22.140Z,100291.06
2023-01-19T05:00:49.103Z,100294.78
2023-01-19T05:03:15.767Z,100308.56
2023-01-19T05:05:42.418Z,100309.66
2023-01-19T05:08:08.911Z,100319.06
2023-01-19T05:10:36.614Z,100312.25
2023-01-19T05:13:03.503Z,100319.38
2023-01-19T05:15:30.172Z,100327.00
2023-01-19T05:17:58.099Z,100334.66
2023-01-19T05:20:25.376Z,100329.34
2023-01-19T05:22:52.706Z,100329.34
2023-01-19T05:25:19.783Z,100327.56
2023-01-19T05:27:46.317Z,100319.91
2023-01-19T05:30:14.352Z,100325.09
2023-01-19T05:32:41.055Z,100333.72
2023-01-19T05:35:08.491Z,100336.31
2023-01-19T05:37:35.076Z,100334.38
2023-01-19T05:40:01.656Z,100338.63
2023-01-19T05:42:28.217Z,100336.56
2023-01-19T05:44:54.793Z,100342.25
2023-01-19T05:47:21.364Z,100352.34
2023-01-19T05:49:47.974Z,100369.28
2023-01-19T05:52:14.989Z,100352.34
2023-01-19T05:54:41.487Z,100354.66
2023-01-19T05:57:08.527Z,100354.06
2023-01-19T05:59:35.248Z,100358.97
2023-01-19T06:02:01.865Z,100359.38
2023-01-19T06:04:28.552Z,100353.06
2023-01-19T06:06:55.129Z,100355.25
2023-01-19T06:09:21.713Z,100363.34
2023-01-19T06:11:48.658Z,100368.97
2023-01-19T06:14:15.255Z,100366.25
2023-01-19T06:16:41.908Z,100367.63
2023-01-19T06:19:08.476Z,100377.50
2023-01-19T06:21:35.060Z,100392.53
2023-01-19T06:24:01.962Z,100403.72
2023-01-19T06:26:28.475Z,100411.50
2023-01-19T06:28:55.301Z,100391.38
2023-01-19T06:31:21.922Z,100407.38
2023-01-19T06:33:48.485Z,100420.59
2023-01-19T06:36:14.955Z,100440.13
2023-01-19T06:38:41.555Z,100435.34
2023-01-19T06:41:08.139Z,100446.53
2023-01-19T06:43:34.622Z,100444.19
2023-01-19T06:46:01.331Z,100432.69
2023-01-19T06:48:28.356Z,100448.28
2023-01-19T06:50:56.214Z,100446.66
2023-01-19T06:53:24.456Z,100452.97
2023-01-19T06:55:50.987Z,100452.28
2023-01-19T06:58:17.719Z,100443.78
2023-01-19T07:00:44.361Z,100452.72
2023-01-19T07:03:19.862Z,100456.25
2023-01-19T07:05:46.908Z,100450.50
2023-01-19T07:08:15.471Z,100455.84
2023-01-19T07:11:25.729Z,100464.63
2023-01-19T07:13:29.461Z,100470.91
2023-01-19T07:15:56.759Z,100476.53
2023-01-19T07:18:23.400Z,100476.09
2023-01-19T07:20:50.093Z,100480.09
2023-01-19T07:23:16.721Z,100485.16
2023-01-19T07:25:46.538Z,100483.28
2023-01-19T07:28:15.722Z,100501.97
2023-01-19T07:30:43.750Z,100502.50
2023-01-19T07:33:10.414Z,100499.53
2023-01-19T07:35:37.004Z,100507.56
2023-01-19T07:38:04.777Z,100501.72
2023-01-19T07:40:31.387Z,100509.22
2023-01-19T07:42:58.327Z,100520.94
2023-01-19T07:45:27.168Z,100522.34
2023-01-19T07:47:55.265Z,100520.28
2023-01-19T07:50:24.589Z,100526.03
2023-01-19T07:52:53.598Z,100527.41
2023-01-19T07:55:21.222Z,100539.25
2023-01-19T07:57:53.609Z,100541.75
2023-01-19T08:00:24.625Z,100542.66
2023-01-19T08:02:53.779Z,100546.38
2023-01-19T08:05:21.199Z,100557.69
2023-01-19T08:07:48.464Z,100558.00
2023-01-19T08:10:16.083Z,100565.91
2023-01-19T08:12:42.711Z,100567.84
2023-01-19T08:15:10.455Z,100575.63
2023-01-19T08:17:38.762Z,100578.31
2023-01-19T08:20:06.663Z,100584.47
2023-01-19T08:22:33.296Z,100593.09
2023-01-19T08:24:59.843Z,100581.88
2023-01-19T08:27:26.423Z,100586.38
2023-01-19T08:29:54.371Z,100586.78
2023-01-19T08:32:21.058Z,100596.63
2023-01-19T08:34:47.623Z,100601.25
2023-01-19T08:37:14.177Z,100599.78
2023-01-19T08:39:40.696Z,100595.66
2023-01-19T08:42:07.235Z,100609.44
2023-01-19T08:44:33.752Z,100603.44
2023-01-19T08:47:00.377Z,100604.13
2023-01-19T08:49:27.113Z,100607.16
2023-01-19T08:51:53.688Z,100611.94
2023-01-19T08:54:21.851Z,100605.25
2023-01-19T08:56:48.551Z,100607.00
2023-01-19T08:59:15.147Z,100610.59
2023-01-19T09:01:42.141Z,100623.88
2023-01-19T09:04:09.107Z,100624.41
2023-01-19T09:06:36.992Z,100622.75
2023-01-19T09:09:03.861Z,100615.25
2023-01-19T09:11:30.885Z,100628.25
2023-01-19T09:13:57.748Z,100631.66
2023-01-19T09:16:27.058Z,100635.72
2023-01-19T09:18:54.230Z,100638.22
2023-01-19T09:21:21.064Z,100633.41
2023-01-19T09:23:49.881Z,100632.88
2023-01-19T09:26:16.777Z,100640.25
2023-01-19T09:28:43.463Z,100640.00
2023-01-19T09:31:10.413Z,100647.38
2023-01-19T09:33:37.259Z,100642.88
2023-01-19T09:36:03.924Z,100641.09
2023-01-19T09:38:33.048Z,100647.09
2023-01-19T09:41:00.564Z,100644.78
2023-01-19T09:43:36.787Z,100650.50
2023-01-19T09:46:18.359Z,100652.28
2023-01-19T09:48:52.475Z,100651.59
2023-01-19T09:51:26.089Z,100659.38
2023-01-19T09:54:15.973Z,100655.97
2023-01-19T09:56:49.307Z,100661.72
2023-01-19T09:59:32.001Z,100664.44
2023-01-19T10:02:08.080Z,100664.44
2023-01-19T10:04:38.668Z,100663.63
2023-01-19T10:07:26.921Z,100667.44
2023-01-19T10:10:11.780Z,100672.66
2023-01-19T10:12:54.070Z,100672.91
2023-01-19T10:15:55.625Z,100676.88
2023-01-19T10:18:47.914Z,100680.69
2023-01-19T10:21:31.585Z,100679.97
2023-01-19T10:24:14.435Z,100682.44
2023-01-19T10:26:49.264Z,100690.91
2023-01-19T10:29:26.045Z,100694.59
2023-01-19T10:32:04.248Z,100695.13
2023-01-19T10:34:30.922Z,100694.03
2023-01-19T10:37:04.488Z,100684.84
2023-01-19T10:39:31.091Z,100692.38
2023-01-19T10:42:00.935Z,100689.47
2023-01-19T10:44:29.528Z,100691.38
2023-01-19T10:46:59.171Z,100692.59
2023-01-19T10:49:28.024Z,100688.75
2023-01-19T10:51:55.452Z,100689.81
2023-01-19T10:54:23.071Z,100697.34
2023-01-19T10:57:10.133Z,100696.09
2023-01-19T10:59:38.427Z,100696.22
2023-01-19T11:02:20.228Z,100691.00
2023-01-19T11:04:53.324Z,100692.50
2023-01-19T11:07:28.338Z,100696.47
2023-01-19T11:10:16.728Z,100689.56
2023-01-19T11:12:44.265Z,100695.97
2023-01-19T11:15:23.435Z,100697.16
2023-01-19T11:17:50.482Z,100703.59
2023-01-19T11:20:28.350Z,100702.34
2023-01-19T11:23:18.855Z,100690.00
2023-01-19T11:25:48.420Z,100702.16
2023-01-19T11:28:20.599Z,100693.25
2023-01-19T11:30:59.496Z,100696.88
2023-01-19T11:33:45.527Z,100703.75
2023-01-19T11:36:24.418Z,100700.00
2023-01-19T11:38:56.090Z,100708.81
2023-01-19T11:41:28.713Z,100709.31
2023-01-19T11:44:17.447Z,100710.16
2023-01-19T11:46:47.992Z,100705.09
2023-01-19T11:50:06.117Z,100705.47
2023-01-19T11:52:43.200Z,100700.72
2023-01-19T11:55:41.700Z,100701.09
2023-01-19T11:58:15.493Z,100701.03
2023-01-19T12:00:58.385Z,100696.88
2023-01-19T12:03:33.090Z,100699.16
2023-01-19T12:06:19.728Z,100696.94
2023-01-19T12:09:09.689Z,100703.19
2023-01-19T12:11:46.953Z,100700.38
2023-01-19T12:14:21.601Z,100702.66
2023-01-19T12:16:54.307Z,100702.44
2023-01-19T12:19:35.848Z,100701.13
2023-01-19T12:22:04.632Z,100699.63
2023-01-19T12:24:40.794Z,100708.03
2023-01-19T12:27:44.068Z,100708.25
2023-01-19T12:30:31.572Z,100707.97
2023-01-19T12:33:35.206Z,100705.56
2023-01-19T12:36:21.990Z,100703.72
2023-01-19T12:38:53.949Z,100706.91
2023-01-19T12:41:23.522Z,100706.97
2023-01-19T12:44:12.113Z,100711.53
2023-01-19T12:46:40.127Z,100710.50
2023-01-19T12:49:13.510Z,100714.97
2023-01-19T12:51:40.698Z,100711.44
2023-01-19T12:54:18.439Z,100717.03
2023-01-19T12:56:46.539Z,100712.47
2023-01-19T12:59:25.138Z,100713.75
2023-01-19T13:02:28.256Z,100719.56
2023-01-19T13:05:33.750Z,100713.19
2023-01-19T13:08:03.197Z,100699.88
2023-01-19T13:10:54.590Z,100699.09
2023-01-19T13:13:23.756Z,100721.38
2023-01-19T13:15:51.191Z,100725.75
2023-01-19T13:18:28.379Z,100721.50
2023-01-19T13:21:08.814Z,100715.13
2023-01-19T13:23:49.863Z,100712.84
2023-01-19T13:26:25.458Z,100719.41
2023-01-19T13:28:58.458Z,100711.25
2023-01-19T13:31:26.144Z,100714.78
2023-01-19T13:33:55.284Z,100730.91
2023-01-19T13:36:53.101Z,100724.16
2023-01-19T13:39:30.951Z,100726.25
2023-01-19T13:42:02.116Z,100723.28
2023-01-19T13:44:35.106Z,100723.38
2023-01-19T13:47:04.324Z,100724.97
2023-01-19T13:49:36.348Z,100736.97
2023-01-19T13:52:19.600Z,100738.53
2023-01-19T13:54:56.466Z,100732.81
2023-01-19T13:57:29.615Z,100736.56
2023-01-19T14:00:12.023Z,100741.69
2023-01-19T14:02:39.923Z,100744.91
2023-01-19T14:05:13.547Z,100745.78
2023-01-19T14:07:40.346Z,100755.19
2023-01-19T14:10:12.807Z,100753.31
2023-01-19T14:12:51.198Z,100753.06
2023-01-19T14:15:24.872Z,100764.25
2023-01-19T14:18:19.078Z,100766.75
2023-01-19T14:21:07.763Z,100769.81
2023-01-19T14:23:43.580Z,100774.63
2023-01-19T14:26:38.286Z,100770.53
2023-01-19T14:29:19.830Z,100774.25
2023-01-19T14:31:53.214Z,100771.13
2023-01-19T14:34:39.735Z,100774.69
2023-01-19T14:37:36.169Z,100782.06
2023-01-19T14:40:10.921Z,100781.25
2023-01-19T14:42:39.305Z,100780.44
2023-01-19T14:45:33.739Z,100778.78
2023-01-19T14:48:15.822Z,100780.72
2023-01-19T14:50:57.658Z,100777.44
2023-01-19T14:53:30.136Z,100780.19
2023-01-19T14:56:06.753Z,100779.66
2023-01-19T14:58:35.680Z,100781.72
2023-01-19T15:01:02.620Z,100772.84
2023-01-19T15:03:44.364Z,100779.31
2023-01-19T15:06:20.418Z,100785.88
2023-01-19T15:08:47.428Z,100789.47
2023-01-19T15:11:29.319Z,100784.53
2023-01-19T15:13:55.865Z,100784.81
2023-01-19T15:16:25.136Z,100790.34
2023-01-19T15:18:52.037Z,100795.53
2023-01-19T15:21:21.760Z,100789.91
2023-01-19T15:23:49.142Z,100792.81
2023-01-19T15:26:18.082Z,100795.03
2023-01-19T15:28:46.032Z,100792.84
2023-01-19T15:31:23.854Z,100803.38
2023-01-19T15:33:50.573Z,100812.31
2023-01-19T15:36:21.190Z,100809.28
2023-01-19T15:38:50.851Z,100810.53
2023-01-19T15:41:27.914Z,100811.91
2023-01-19T15:43:54.511Z,100815.06
2023-01-19T15:46:22.775Z,100822.47
2023-01-19T15:48:50.630Z,100820.53
2023-01-19T15:51:20.258Z,100823.00
2023-01-19T15:53:47.963Z,100827.81
2023-01-19T15:56:20.414Z,100827.69
2023-01-19T15:58:47.322Z,100824.09
2023-01-19T16:01:19.166Z,100821.09
2023-01-19T16:03:47.847Z,100828.59
2023-01-19T16:06:16.324Z,100830.09
2023-01-19T16:08:42.992Z,100826.38
2023-01-19T16:11:14.786Z,100835.66
2023-01-19T16:13:46.288Z,100830.31
2023-01-19T16:16:24.236Z,100843.97
2023-01-19T16:18:51.236Z,100841.34
2023-01-19T16:21:18.477Z,100848.72
2023-01-19T16:23:45.056Z,100848.41
2023-01-19T16:26:26.280Z,100852.34
2023-01-19T16:28:56.077Z,100851.91
2023-01-19T16:31:22.644Z,100858.44
2023-01-19T16:33:49.779Z,100863.19
2023-01-19T16:36:28.193Z,100869.72
2023-01-19T16:38:59.061Z,100868.59
2023-01-19T16:41:25.753Z,100870.72
2023-01-19T16:43:57.731Z,100871.25
2023-01-19T16:46:30.484Z,100882.28
2023-01-19T16:49:04.121Z,100880.41
2023-01-19T16:51:32.276Z,100881.75
2023-01-19T16:53:59.488Z,100878.28
2023-01-19T16:56:26.055Z,100880.78
2023-01-19T16:58:56.905Z,100880.56
2023-01-19T17:01:24.779Z,100887.66
2023-01-19T17:03:52.207Z,100891.19
2023-01-19T17:06:22.841Z,100886.81
2023-01-19T17:08:50.464Z,100892.97
2023-01-19T17:11:28.739Z,100898.38
2023-01-19T17:14:01.195Z,100897.00
2023-01-19T17:16:29.231Z,100903.38
2023-01-19T17:19:00.945Z,100905.28
2023-01-19T17:21:28.279Z,100908.22
2023-01-19T17:23:56.466Z,100907.53
2023-01-19T17:26:28.451Z,100911.88
2023-01-19T17:29:03.505Z,100915.53
2023-01-19T17:31:30.746Z,100922.72
2023-01-19T17:33:58.813Z,100918.59
2023-01-19T17:36:27.712Z,100919.69
2023-01-19T17:38:57.140Z,100923.19
2023-01-19T17:41:26.543Z,100925.09
2023-01-19T17:43:53.655Z,100925.22
2023-01-19T17:46:22.891Z,100925.44
2023-01-19T17:48:57.846Z,100926.63
2023-01-19T17:51:25.185Z,100915.69
2023-01-19T17:53:52.952Z,100927.13
2023-01-19T17:56:22.184Z,100922.88
2023-01-19T17:58:49.724Z,100933.50
2023-01-19T18:01:19.424Z,100929.47
2023-01-19T18:03:46.763Z,100928.41
2023-01-19T18:06:14.165Z,100943.50
2023-01-19T18:08:42.828Z,100952.53
2023-01-19T18:11:10.807Z,100945.00
2023-01-19T18:13:38.001Z,100940.06
2023-01-19T18:16:11.654Z,100935.00
2023-01-19T18:18:38.355Z,100953.13
2023-01-19T18:21:10.689Z,100941.94
2023-01-19T18:23:37.817Z,100945.59
2023-01-19T18:26:07.140Z,100951.72
2023-01-19T18:28:34.658Z,100947.34
2023-01-19T18:31:01.825Z,100952.53
2023-01-19T18:33:31.361Z,100967.59
2023-01-19T18:35:57.858Z,100967.84
2023-01-19T18:38:24.419Z,100964.31
2023-01-19T18:41:03.760Z,100957.63
2023-01-19T18:43:30.972Z,100964.91
2023-01-19T18:45:57.657Z,100957.97
2023-01-19T18:48:24.382Z,100970.94
2023-01-19T18:50:51.031Z,100974.22
2023-01-19T18:53:18.068Z,100963.03
2023-01-19T18:55:56.752Z,100959.63
2023-01-19T18:58:24.145Z,100967.50
2023-01-19T19:00:51.095Z,100960.81
2023-01-19T19:03:17.696Z,100960.09
2023-01-19T19:05:44.277Z,100971.41
2023-01-19T19:08:11.169Z,100970.56
2023-01-19T19:10:39.865Z,100969.75
2023-01-19T19:13:06.553Z,100966.91
2023-01-19T19:15:33.567Z,100976.94
2023-01-19T19:18:00.163Z,100973.16
2023-01-19T19:20:26.995Z,100984.94
2023-01-19T19:22:54.931Z,101006.25
2023-01-19T19:25:21.820Z,100999.88
2023-01-19T19:27:52.141Z,100997.16
2023-01-19T19:30:19.924Z,101008.03
2023-01-19T19:32:52.817Z,101009.53
2023-01-19T19:35:21.158Z,101012.72
2023-01-19T19:37:48.948Z,101020.16
2023-01-19T19:40:16.107Z,101030.97
2023-01-19T19:42:42.799Z,101029.09
2023-01-19T19:45:09.964Z,101031.44
2023-01-19T19:47:36.517Z,101025.19
2023-01-19T19:50:03.065Z,101036.16
2023-01-19T19:52:29.635Z,101035.91
2023-01-19T19:54:56.241Z,101041.78
2023-01-19T19:57:22.897Z,101044.97
2023-01-19T19:59:49.417Z,101049.09
2023-01-19T20:02:16.031Z,101056.50
2023-01-19T20:04:43.113Z,101054.63
2023-01-19T20:07:09.653Z,101045.56
2023-01-19T20:09:36.708Z,101042.63
2023-01-19T20:12:03.385Z,101058.44
2023-01-19T20:14:29.882Z,101053.25
2023-01-19T20:16:56.407Z,101055.00
2023-01-19T20:19:23.068Z,101061.03
2023-01-19T20:21:49.618Z,101055.94
2023-01-19T20:24:19.858Z,101062.91
2023-01-19T20:26:52.399Z,101066.56
2023-01-19T20:29:20.085Z,101070.91
2023-01-19T20:31:49.482Z,101079.63
2023-01-19T20:34:18.707Z,101084.13
2023-01-19T20:36:49.755Z,101084.94
2023-01-19T20:39:20.839Z,101094.38
2023-01-19T20:41:49.010Z,101092.59
2023-01-19T20:44:20.314Z,101089.31
2023-01-19T20:46:47.528Z,101093.78
2023-01-19T20:49:14.305Z,101093.19
2023-01-19T20:51:45.223Z,101098.38
2023-01-19T20:54:13.035Z,101111.22
2023-01-19T20:56:41.400Z,101112.88
2023-01-19T20:59:09.709Z,101109.34
2023-01-19T21:01:36.745Z,101115.34
2023-01-19T21:04:03.541Z,101114.41
2023-01-19T21:06:30.129Z,101105.94
2023-01-19T21:08:57.542Z,101105.34
2023-01-19T21:11:25.009Z,101108.75
2023-01-19T21:13:55.626Z,101110.63
2023-01-19T21:16:24.103Z,101104.03
2023-01-19T21:18:50.932Z,101099.78
2023-01-19T21:21:29.346Z,101102.59
2023-01-19T21:23:57.864Z,101102.75
2023-01-19T21:26:24.368Z,101102.84
2023-01-19T21:28:51.019Z,101112.59
2023-01-19T21:31:17.704Z,101112.88
2023-01-19T21:33:44.473Z,101119.91
2023-01-19T21:36:11.126Z,101125.31
2023-01-19T21:38:39.125Z,101115.31
2023-01-19T21:41:10.997Z,101124.13
2023-01-19T21:43:39.089Z,101123.44
2023-01-19T21:46:11.432Z,101127.19
2023-01-19T21:48:38.222Z,101122.25
2023-01-19T21:51:05.040Z,101125.06
2023-01-19T21:53:31.563Z,101128.81
2023-01-19T21:55:58.863Z,101129.03
2023-01-19T21:58:25.438Z,101129.25
2023-01-19T22:00:59.313Z,101139.75
2023-01-19T22:03:27.322Z,101146.91
2023-01-19T22:05:54.824Z,101146.31
2023-01-19T22:08:22.283Z,101143.13
2023-01-19T22:10:49.447Z,101147.56
2023-01-19T22:13:15.941Z,101151.22
2023-01-19T22:15:42.619Z,101150.63
2023-01-19T22:18:09.159Z,101165.34
2023-01-19T22:20:35.740Z,101165.44
2023-01-19T22:23:02.304Z,101169.44
2023-01-19T22:25:28.919Z,101170.06
2023-01-19T22:27:56.519Z,101174.28
2023-01-19T22:30:23.294Z,101173.97
2023-01-19T22:32:49.966Z,101178.81
2023-01-19T22:35:16.694Z,101186.38
2023-01-19T22:37:43.363Z,101188.00
2023-01-19T22:40:11.058Z,101189.66
2023-01-19T22:42:37.805Z,101188.75
2023-01-19T22:45:04.723Z,101185.09
2023-01-19T22:47:31.465Z,101196.25
2023-01-19T22:50:00.151Z,101186.75
2023-01-19T22:52:26.974Z,101188.63
2023-01-19T22:54:56.285Z,101178.59
2023-01-19T22:57:22.944Z,101191.44
2023-01-19T22:59:49.478Z,101186.38
2023-01-19T23:02:16.370Z,101197.78
2023-01-19T23:04:43.042Z,101198.72
2023-01-19T23:07:09.793Z,101198.81
2023-01-19T23:09:37.750Z,101197.97
2023-01-19T23:12:04.642Z,101194.56
2023-01-19T23:14:31.250Z,101193.63
2023-01-19T23:16:57.838Z,101194.34
2023-01-19T23:19:24.320Z,101191.78
2023-01-19T23:21:52.532Z,101193.75
2023-01-19T23:24:19.239Z,101198.94
2023-01-19T23:26:45.966Z,101198.09
2023-01-19T23:29:14.793Z,101195.94
2023-01-19T23:31:48.279Z,101193.69
2023-01-19T23:34:16.498Z,101191.25
2023-01-19T23:36:43.457Z,101191.25
2023-01-19T23:39:22.226Z,101190.16
2023-01-19T23:41:49.668Z,101197.22
2023-01-19T23:44:17.256Z,101199.91
2023-01-19T23:46:44.170Z,101202.03
2023-01-19T23:49:11.492Z,101204.09
2023-01-19T23:51:39.775Z,101201.03
2023-01-19T23:54:06.423Z,101207.22
2023-01-19T23:56:35.970Z,101200.63
2023-01-19T23:59:05.916Z,101204.38
